Time;durP1;ratioP1;P1;durP2;ratioP2;P2;SDS_P1;SDS_P2;PMS_P1;PMS_P2;Temp;Humidity;BMP_temperature;BMP_pressure;BME280_temperature;BME280_humidity;BME280_pressure;Samples;Min_cycle;Max_cycle;Signal;HPM_P1;HPM_P2
2023/01/27 00:02:23;;;;;;;;;;;0.60;99.90;;;;;;4865236;29;19951;-77
2023/01/27 00:04:50;;;;;;;;;;;0.60;99.90;;;;;;4876771;29;20027;-76
2023/01/27 00:07:17;;;;;;;;;;;0.60;99.90;;;;;;4880687;29;20043;-76
2023/01/27 00:09:44;;;;;;;;;;;0.60;99.90;;;;;;4874752;29;20011;-76
2023/01/27 00:15:02;;;;;;;;;;;0.60;99.90;;;;;;4876439;29;19930;-76
2023/01/27 00:17:30;;;;;;;;;;;0.60;99.90;;;;;;4874382;29;20027;-77
2023/01/27 00:19:57;;;;;;;;;;;0.60;99.90;;;;;;4877498;29;20018;-76
2023/01/27 00:25:08;;;;;;;;;;;0.50;99.90;;;;;;4872182;29;20391;-76
2023/01/27 00:27:35;;;;;;;;;;;0.60;99.90;;;;;;4871910;29;20327;-76
2023/01/27 00:30:03;;;;;;;;;;;0.60;99.90;;;;;;4874387;29;19928;-76
2023/01/27 00:35:18;;;;;;;;;;;0.60;99.90;;;;;;4872570;29;19976;-76
2023/01/27 00:37:45;;;;;;;;;;;0.60;99.90;;;;;;4871779;29;20030;-76
2023/01/27 00:40:12;;;;;;;;;;;0.50;99.90;;;;;;4875264;29;20019;-76
2023/01/27 00:42:39;;;;;;;;;;;0.50;99.90;;;;;;4858609;29;20008;-77
2023/01/27 00:47:53;;;;;;;;;;;0.50;99.90;;;;;;4877842;29;19931;-76
2023/01/27 00:50:20;;;;;;;;;;;0.60;99.90;;;;;;4873480;29;20107;-77
2023/01/27 00:52:47;;;;;;;;;;;0.50;99.90;;;;;;4874899;29;20110;-76
2023/01/27 00:55:15;;;;;;;;;;;0.50;99.90;;;;;;4875565;29;19955;-76
2023/01/27 00:57:43;;;;;;;;;;;0.50;99.90;;;;;;4873194;29;19928;-76
2023/01/27 01:00:11;;;;;;;;;;;0.50;99.90;;;;;;4878094;29;19928;-77
2023/01/27 01:02:38;;;;;;;;;;;0.50;99.90;;;;;;4870578;29;19934;-77
2023/01/27 01:05:07;;;;;;;;;;;0.50;99.90;;;;;;4871917;29;19927;-74
2023/01/27 01:07:35;;;;;;;;;;;0.50;99.90;;;;;;4871663;29;20395;-76
2023/01/27 01:10:02;;;;;;;;;;;0.50;99.90;;;;;;4873184;29;19932;-76
2023/01/27 01:12:28;;;;;;;;;;;0.50;99.90;;;;;;4871673;29;19960;-76
2023/01/27 01:14:55;;;;;;;;;;;0.50;99.90;;;;;;4852319;29;19928;-77
2023/01/27 01:17:22;;;;;;;;;;;0.50;99.90;;;;;;4857323;29;19928;-76
2023/01/27 01:19:49;;;;;;;;;;;0.50;99.90;;;;;;4873904;29;19932;-77
2023/01/27 01:22:17;;;;;;;;;;;0.50;99.90;;;;;;4857450;29;19967;-76
2023/01/27 01:24:44;;;;;;;;;;;0.50;99.90;;;;;;4871294;29;19927;-77
2023/01/27 01:27:13;;;;;;;;;;;0.50;99.90;;;;;;4879427;29;19932;-76
2023/01/27 01:29:40;;;;;;;;;;;0.50;99.90;;;;;;4868206;29;19932;-76
2023/01/27 01:32:08;;;;;;;;;;;0.50;99.90;;;;;;4874065;29;19928;-76
2023/01/27 01:34:36;;;;;;;;;;;0.50;99.90;;;;;;4873487;29;19987;-76
2023/01/27 01:37:03;;;;;;;;;;;0.50;99.90;;;;;;4870092;29;22079;-77
2023/01/27 01:39:31;;;;;;;;;;;0.50;99.90;;;;;;4874183;29;20345;-77
2023/01/27 01:41:58;;;;;;;;;;;0.50;99.90;;;;;;4854766;29;19947;-76
2023/01/27 01:44:26;;;;;;;;;;;0.50;99.90;;;;;;4869610;29;20038;-77
2023/01/27 01:46:52;;;;;;;;;;;0.50;99.90;;;;;;4848339;29;20031;-76
2023/01/27 01:49:22;;;;;;;;;;;0.50;99.90;;;;;;4856005;29;19927;-76
2023/01/27 01:51:51;;;;;;;;;;;0.50;99.90;;;;;;4873092;29;20012;-76
2023/01/27 01:54:19;;;;;;;;;;;0.50;99.90;;;;;;4869172;29;20006;-75
2023/01/27 01:56:49;;;;;;;;;;;0.50;99.90;;;;;;4869256;29;20030;-77
2023/01/27 01:59:19;;;;;;;;;;;0.50;99.90;;;;;;4853993;29;19931;-76
2023/01/27 02:01:46;;;;;;;;;;;0.50;99.90;;;;;;4872195;29;19980;-77
2023/01/27 02:04:15;;;;;;;;;;;0.50;99.90;;;;;;4872478;29;20403;-77
2023/01/27 02:06:44;;;;;;;;;;;0.50;99.90;;;;;;4861781;29;20311;-76
2023/01/27 02:09:11;;;;;;;;;;;0.50;99.90;;;;;;4876742;29;20002;-77
2023/01/27 02:11:38;;;;;;;;;;;0.50;99.90;;;;;;4869812;29;19956;-77
2023/01/27 02:14:12;;;;;;;;;;;0.50;99.90;;;;;;4866874;29;19936;-76
2023/01/27 02:16:38;;;;;;;;;;;0.50;99.90;;;;;;4870783;29;19955;-76
2023/01/27 02:19:05;;;;;;;;;;;0.50;99.90;;;;;;4849151;29;19935;-76
2023/01/27 02:21:34;;;;;;;;;;;0.50;99.90;;;;;;4865785;29;20405;-76
2023/01/27 02:24:05;;;;;;;;;;;0.40;99.90;;;;;;4869745;29;19978;-76
2023/01/27 02:26:34;;;;;;;;;;;0.40;99.90;;;;;;4871050;29;20410;-77
2023/01/27 02:29:04;;;;;;;;;;;0.40;99.90;;;;;;4872721;29;19983;-75
2023/01/27 02:31:31;;;;;;;;;;;0.50;99.90;;;;;;4868025;29;19967;-76
2023/01/27 02:34:00;;;;;;;;;;;0.50;99.90;;;;;;4872919;29;19933;-76
2023/01/27 02:36:29;;;;;;;;;;;0.50;99.90;;;;;;4868686;29;20026;-76
2023/01/27 02:38:58;;;;;;;;;;;0.50;99.90;;;;;;4872139;29;19935;-76
2023/01/27 02:41:27;;;;;;;;;;;0.50;99.90;;;;;;4868557;29;19978;-76
2023/01/27 02:43:56;;;;;;;;;;;0.50;99.90;;;;;;4867824;29;19932;-76
2023/01/27 02:46:23;;;;;;;;;;;0.50;99.90;;;;;;4870368;29;19932;-77
2023/01/27 02:48:49;;;;;;;;;;;0.50;99.90;;;;;;4874380;29;19964;-77
2023/01/27 02:51:16;;;;;;;;;;;0.50;99.90;;;;;;4874495;29;19979;-77
2023/01/27 02:53:44;;;;;;;;;;;0.50;99.90;;;;;;4873093;29;19999;-76
2023/01/27 02:56:11;;;;;;;;;;;0.50;99.90;;;;;;4875823;29;20561;-77
2023/01/27 02:58:38;;;;;;;;;;;0.50;99.90;;;;;;4875701;29;20022;-76
2023/01/27 03:01:10;;;;;;;;;;;0.50;99.90;;;;;;4869158;29;20014;-77
2023/01/27 03:03:45;;;;;;;;;;;0.50;99.90;;;;;;4873646;29;19965;-76
2023/01/27 03:06:12;;;;;;;;;;;0.50;99.90;;;;;;4858491;29;19928;-77
2023/01/27 03:08:39;;;;;;;;;;;0.50;99.90;;;;;;4876524;29;20319;-76
2023/01/27 03:11:06;;;;;;;;;;;0.50;99.90;;;;;;4871584;29;19928;-76
2023/01/27 03:13:33;;;;;;;;;;;0.50;99.90;;;;;;4874087;29;19983;-76
2023/01/27 03:18:48;;;;;;;;;;;0.50;99.90;;;;;;4871756;29;19924;-76
2023/01/27 03:21:16;;;;;;;;;;;0.50;99.90;;;;;;4865812;29;19936;-77
2023/01/27 03:23:44;;;;;;;;;;;0.50;99.90;;;;;;4852062;29;19942;-76
2023/01/27 03:26:12;;;;;;;;;;;0.50;99.90;;;;;;4871563;29;20391;-77
2023/01/27 03:29:53;;;;;;;;;;;0.50;99.90;;;;;;4873389;29;19928;-77
2023/01/27 03:31:30;;;;;;;;;;;0.50;99.90;;;;;;4870708;29;19989;-77
2023/01/27 03:34:03;;;;;;;;;;;0.50;99.90;;;;;;4874699;29;19936;-77
2023/01/27 03:47:33;;;;;;;;;;;0.50;99.90;;;;;;4871181;29;20031;-78
2023/01/27 03:50:01;;;;;;;;;;;0.50;99.90;;;;;;4874781;29;20036;-77
2023/01/27 03:52:28;;;;;;;;;;;0.50;99.90;;;;;;4869456;29;19934;-78
2023/01/27 03:54:56;;;;;;;;;;;0.50;99.90;;;;;;4873218;29;19956;-78
2023/01/27 03:57:23;;;;;;;;;;;0.50;99.90;;;;;;4872994;29;19932;-78
2023/01/27 03:59:49;;;;;;;;;;;0.40;99.90;;;;;;4871621;29;20007;-78
2023/01/27 04:07:46;;;;;;;;;;;0.40;99.90;;;;;;4877755;29;19947;-77
2023/01/27 04:10:13;;;;;;;;;;;0.40;99.90;;;;;;4876828;29;20330;-78
2023/01/27 04:12:39;;;;;;;;;;;0.40;99.90;;;;;;4869955;29;19976;-78
2023/01/27 04:15:07;;;;;;;;;;;0.40;99.90;;;;;;4875470;29;19974;-78
2023/01/27 04:17:37;;;;;;;;;;;0.40;99.90;;;;;;4873459;29;19991;-77
2023/01/27 04:20:06;;;;;;;;;;;0.40;99.90;;;;;;4877849;29;19942;-77
2023/01/27 04:22:33;;;;;;;;;;;0.40;99.90;;;;;;4871720;29;19943;-77
2023/01/27 04:25:00;;;;;;;;;;;0.40;99.90;;;;;;4872526;29;19959;-77
2023/01/27 04:27:27;;;;;;;;;;;0.40;99.90;;;;;;4874276;29;19934;-78
2023/01/27 04:29:55;;;;;;;;;;;0.40;99.90;;;;;;4877067;29;20589;-78
2023/01/27 04:32:22;;;;;;;;;;;0.40;99.90;;;;;;4869584;29;20011;-77
2023/01/27 04:34:49;;;;;;;;;;;0.40;99.90;;;;;;4861632;29;19935;-77
2023/01/27 04:37:17;;;;;;;;;;;0.40;99.90;;;;;;4872380;29;19928;-77
2023/01/27 04:39:44;;;;;;;;;;;0.40;99.90;;;;;;4871430;29;20018;-78
2023/01/27 04:42:11;;;;;;;;;;;0.40;99.90;;;;;;4874409;29;19928;-77
2023/01/27 04:44:38;;;;;;;;;;;0.40;99.90;;;;;;4877362;29;19928;-78
2023/01/27 04:47:05;;;;;;;;;;;0.40;99.90;;;;;;4878936;29;19939;-77
2023/01/27 04:49:32;;;;;;;;;;;0.40;99.90;;;;;;4870046;29;19943;-78
2023/01/27 04:51:59;;;;;;;;;;;0.40;99.90;;;;;;4874774;29;19927;-79
2023/01/27 04:54:27;;;;;;;;;;;0.40;99.90;;;;;;4874878;29;19967;-77
2023/01/27 04:56:55;;;;;;;;;;;0.40;99.90;;;;;;4871684;29;19928;-77
2023/01/27 04:59:22;;;;;;;;;;;0.50;99.90;;;;;;4873210;29;19983;-77
2023/01/27 05:01:49;;;;;;;;;;;0.40;99.90;;;;;;4869532;29;20062;-77
2023/01/27 05:04:16;;;;;;;;;;;0.40;99.90;;;;;;4873093;29;19935;-77
2023/01/27 05:06:42;;;;;;;;;;;0.40;99.90;;;;;;4874573;29;19967;-77
2023/01/27 05:09:11;;;;;;;;;;;0.40;99.90;;;;;;4871914;29;21532;-77
2023/01/27 05:11:39;;;;;;;;;;;0.40;99.90;;;;;;4873398;29;19950;-77
2023/01/27 05:14:06;;;;;;;;;;;0.40;99.90;;;;;;4867493;29;20560;-77
2023/01/27 05:16:33;;;;;;;;;;;0.40;99.90;;;;;;4866918;29;19928;-77
2023/01/27 05:19:00;;;;;;;;;;;0.40;99.90;;;;;;4857204;29;19963;-77
2023/01/27 05:21:27;;;;;;;;;;;0.40;99.90;;;;;;4868923;29;19928;-77
2023/01/27 05:23:55;;;;;;;;;;;0.40;99.90;;;;;;4870043;29;19939;-77
2023/01/27 05:26:23;;;;;;;;;;;0.40;99.90;;;;;;4862682;29;19931;-77
2023/01/27 05:28:52;;;;;;;;;;;0.40;99.90;;;;;;4870387;29;20023;-77
2023/01/27 05:31:19;;;;;;;;;;;0.40;99.90;;;;;;4870302;29;19928;-78
2023/01/27 05:33:47;;;;;;;;;;;0.40;99.90;;;;;;4869762;29;19943;-77
2023/01/27 05:36:14;;;;;;;;;;;0.40;99.90;;;;;;4854614;29;19939;-77
2023/01/27 05:38:43;;;;;;;;;;;0.40;99.90;;;;;;4867781;29;19981;-77
2023/01/27 05:41:10;;;;;;;;;;;0.30;99.90;;;;;;4874853;29;19984;-77
2023/01/27 05:43:38;;;;;;;;;;;0.40;99.90;;;;;;4852678;29;19928;-76
2023/01/27 05:46:07;;;;;;;;;;;0.40;99.90;;;;;;4872388;29;20026;-77
2023/01/27 05:48:35;;;;;;;;;;;0.30;99.90;;;;;;4873204;29;19932;-77
2023/01/27 05:51:02;;;;;;;;;;;0.30;99.90;;;;;;4857873;29;20335;-77
2023/01/27 05:53:29;;;;;;;;;;;0.30;99.90;;;;;;4874151;29;19983;-78
2023/01/27 05:55:55;;;;;;;;;;;0.40;99.90;;;;;;4860932;29;19942;-76
2023/01/27 05:58:23;;;;;;;;;;;0.40;99.90;;;;;;4870340;29;19974;-77
2023/01/27 06:00:50;;;;;;;;;;;0.40;99.90;;;;;;4874093;29;19927;-77
2023/01/27 06:03:18;;;;;;;;;;;0.40;99.90;;;;;;4874201;29;20310;-76
2023/01/27 06:05:55;;;;;;;;;;;0.40;99.90;;;;;;4869298;29;19935;-76
2023/01/27 06:08:22;;;;;;;;;;;0.40;99.90;;;;;;4876503;29;19940;-74
2023/01/27 06:10:50;;;;;;;;;;;0.40;99.90;;;;;;4861593;29;20286;-74
2023/01/27 06:13:21;;;;;;;;;;;0.30;99.90;;;;;;4865022;29;21371;-74
2023/01/27 06:15:48;;;;;;;;;;;0.30;99.90;;;;;;4881912;29;19935;-75
2023/01/27 06:18:16;;;;;;;;;;;0.40;99.90;;;;;;4876654;29;19932;-75
2023/01/27 06:20:44;;;;;;;;;;;0.40;99.90;;;;;;4871989;29;20426;-74
2023/01/27 06:23:12;;;;;;;;;;;0.40;99.90;;;;;;4877584;29;20403;-74
2023/01/27 06:25:40;;;;;;;;;;;0.40;99.90;;;;;;4873950;29;19928;-75
2023/01/27 06:28:08;;;;;;;;;;;0.40;99.90;;;;;;4872790;29;19928;-75
2023/01/27 06:30:35;;;;;;;;;;;0.40;99.90;;;;;;4877671;29;19942;-75
2023/01/27 06:33:02;;;;;;;;;;;0.30;99.90;;;;;;4858984;29;19950;-74
2023/01/27 06:35:29;;;;;;;;;;;0.30;99.90;;;;;;4875929;29;19959;-75
2023/01/27 06:37:59;;;;;;;;;;;0.30;99.90;;;;;;4877193;29;19928;-75
2023/01/27 06:40:26;;;;;;;;;;;0.30;99.90;;;;;;4870827;29;19967;-74
2023/01/27 06:42:52;;;;;;;;;;;0.30;99.90;;;;;;4875074;29;19950;-75
2023/01/27 06:45:20;;;;;;;;;;;0.30;99.90;;;;;;4868719;29;19928;-75
2023/01/27 06:47:53;;;;;;;;;;;0.30;99.90;;;;;;4874020;29;20371;-74
2023/01/27 06:50:20;;;;;;;;;;;0.30;99.90;;;;;;4868231;29;19932;-74
2023/01/27 06:52:47;;;;;;;;;;;0.30;99.90;;;;;;4847650;29;19927;-74
2023/01/27 06:55:15;;;;;;;;;;;0.30;99.90;;;;;;4878986;29;19975;-75
2023/01/27 06:57:43;;;;;;;;;;;0.30;99.90;;;;;;4873289;29;19928;-75
2023/01/27 07:00:10;;;;;;;;;;;0.30;99.90;;;;;;4860032;29;19943;-74
2023/01/27 07:02:37;;;;;;;;;;;0.30;99.90;;;;;;4874024;29;19993;-74
2023/01/27 07:05:04;;;;;;;;;;;0.30;99.90;;;;;;4876887;29;19927;-74
2023/01/27 07:07:31;;;;;;;;;;;0.30;99.90;;;;;;4853328;29;20319;-74
2023/01/27 07:09:58;;;;;;;;;;;0.30;99.90;;;;;;4880061;29;19964;-74
2023/01/27 07:12:26;;;;;;;;;;;0.30;99.90;;;;;;4877253;29;20232;-74
2023/01/27 07:14:53;;;;;;;;;;;0.30;99.90;;;;;;4875916;29;21137;-74
2023/01/27 07:17:19;;;;;;;;;;;0.30;99.90;;;;;;4880760;29;19935;-74
2023/01/27 07:19:46;;;;;;;;;;;0.30;99.90;;;;;;4881050;29;19936;-75
2023/01/27 07:22:13;;;;;;;;;;;0.30;99.90;;;;;;4872420;29;20010;-74
2023/01/27 07:24:40;;;;;;;;;;;0.30;99.90;;;;;;4874229;29;19959;-75
2023/01/27 07:27:06;;;;;;;;;;;0.30;99.90;;;;;;4877202;29;19927;-74
2023/01/27 07:29:35;;;;;;;;;;;0.30;99.90;;;;;;4876297;29;19960;-74
2023/01/27 07:32:01;;;;;;;;;;;0.30;99.90;;;;;;4875827;29;20428;-75
2023/01/27 07:34:28;;;;;;;;;;;0.30;99.90;;;;;;4875034;29;19927;-75
2023/01/27 07:36:55;;;;;;;;;;;0.20;99.90;;;;;;4876260;29;19932;-74
2023/01/27 07:39:22;;;;;;;;;;;0.30;99.90;;;;;;4877635;29;20451;-75
2023/01/27 07:41:49;;;;;;;;;;;0.30;99.90;;;;;;4873357;29;19932;-75
2023/01/27 07:44:15;;;;;;;;;;;0.20;99.90;;;;;;4875989;29;19934;-74
2023/01/27 07:46:44;;;;;;;;;;;0.30;99.90;;;;;;4875753;29;20405;-75
2023/01/27 07:49:11;;;;;;;;;;;0.30;99.90;;;;;;4873743;29;20026;-74
2023/01/27 07:51:38;;;;;;;;;;;0.30;99.90;;;;;;4860944;29;19995;-74
2023/01/27 07:54:05;;;;;;;;;;;0.20;99.90;;;;;;4877878;29;19928;-76
2023/01/27 07:56:32;;;;;;;;;;;0.20;99.90;;;;;;4869430;29;20307;-74
2023/01/27 07:58:58;;;;;;;;;;;0.20;99.90;;;;;;4877863;29;20386;-75
2023/01/27 08:01:25;;;;;;;;;;;0.20;99.90;;;;;;4873070;29;19936;-74
2023/01/27 08:03:53;;;;;;;;;;;0.20;99.90;;;;;;4872114;29;19927;-74
2023/01/27 08:06:20;;;;;;;;;;;0.20;99.90;;;;;;4874777;29;19936;-73
2023/01/27 08:08:47;;;;;;;;;;;0.20;99.90;;;;;;4869005;29;20015;-74
2023/01/27 08:11:14;;;;;;;;;;;0.20;99.90;;;;;;4877909;29;19934;-74
2023/01/27 08:13:41;;;;;;;;;;;0.20;99.90;;;;;;4878111;29;19927;-74
2023/01/27 08:16:11;;;;;;;;;;;0.20;99.90;;;;;;4872738;29;20001;-75
2023/01/27 08:18:38;;;;;;;;;;;0.20;99.90;;;;;;4877809;29;20019;-74
2023/01/27 08:21:07;;;;;;;;;;;0.20;99.90;;;;;;4873925;29;19935;-74
2023/01/27 08:23:34;;;;;;;;;;;0.20;99.90;;;;;;4877541;29;20194;-74
2023/01/27 08:26:02;;;;;;;;;;;0.20;99.90;;;;;;4872696;29;19942;-74
2023/01/27 08:28:30;;;;;;;;;;;0.20;99.90;;;;;;4877121;29;20015;-74
2023/01/27 08:31:03;;;;;;;;;;;0.20;99.90;;;;;;4874636;29;20014;-74
2023/01/27 08:33:30;;;;;;;;;;;0.20;99.90;;;;;;4875916;29;20022;-74
2023/01/27 08:36:01;;;;;;;;;;;0.20;99.90;;;;;;4873736;29;19959;-74
2023/01/27 08:38:30;;;;;;;;;;;0.20;99.90;;;;;;4873030;29;20036;-74
2023/01/27 08:40:57;;;;;;;;;;;0.20;99.90;;;;;;4878671;29;19927;-73
2023/01/27 08:43:24;;;;;;;;;;;0.20;99.90;;;;;;4874749;29;20426;-75
2023/01/27 08:45:52;;;;;;;;;;;0.20;99.90;;;;;;4875348;29;19986;-74
2023/01/27 08:48:19;;;;;;;;;;;0.20;99.90;;;;;;4876902;29;20126;-75
2023/01/27 08:50:47;;;;;;;;;;;0.20;99.90;;;;;;4872825;29;19928;-74
2023/01/27 08:53:13;;;;;;;;;;;0.20;99.90;;;;;;4871425;29;19928;-74
2023/01/27 08:55:42;;;;;;;;;;;0.20;99.90;;;;;;4875848;29;20082;-75
2023/01/27 08:58:08;;;;;;;;;;;0.20;99.90;;;;;;4873731;29;20415;-74
2023/01/27 09:00:35;;;;;;;;;;;0.20;99.90;;;;;;4878562;29;19983;-74
2023/01/27 09:03:02;;;;;;;;;;;0.30;99.90;;;;;;4880706;29;20295;-75
2023/01/27 09:05:29;;;;;;;;;;;0.20;99.90;;;;;;4879881;29;19979;-74
2023/01/27 09:07:56;;;;;;;;;;;0.20;99.90;;;;;;4875240;29;19932;-75
2023/01/27 09:10:23;;;;;;;;;;;0.20;99.90;;;;;;4880844;29;19928;-75
2023/01/27 09:12:51;;;;;;;;;;;0.20;99.90;;;;;;4872239;29;20479;-74
2023/01/27 09:15:18;;;;;;;;;;;0.30;99.90;;;;;;4868735;29;19928;-74
2023/01/27 09:17:46;;;;;;;;;;;0.20;99.90;;;;;;4876383;29;19963;-74
2023/01/27 09:20:13;;;;;;;;;;;0.20;99.90;;;;;;4871195;29;19927;-75
2023/01/27 09:22:40;;;;;;;;;;;0.20;99.90;;;;;;4868447;29;19942;-74
2023/01/27 09:25:08;;;;;;;;;;;0.20;99.90;;;;;;4878335;29;19975;-75
2023/01/27 09:27:34;;;;;;;;;;;0.20;99.90;;;;;;4866821;29;19935;-74
2023/01/27 09:30:03;;;;;;;;;;;0.20;99.90;;;;;;4874548;29;19936;-75
2023/01/27 09:32:30;;;;;;;;;;;0.20;99.90;;;;;;4878560;29;20318;-74
2023/01/27 09:34:56;;;;;;;;;;;0.20;99.90;;;;;;4875529;29;19931;-74
2023/01/27 09:37:23;;;;;;;;;;;0.20;99.90;;;;;;4873951;29;19992;-75
2023/01/27 09:39:52;;;;;;;;;;;0.20;99.90;;;;;;4877106;29;19928;-74
2023/01/27 09:42:27;;;;;;;;;;;0.20;99.90;;;;;;4874637;29;19954;-74
2023/01/27 09:45:05;;;;;;;;;;;0.20;99.90;;;;;;4876944;29;20371;-75
2023/01/27 09:47:53;;;;;;;;;;;0.20;99.90;;;;;;4872888;29;20675;-74
2023/01/27 09:50:25;;;;;;;;;;;0.20;99.90;;;;;;4871429;29;20288;-74
2023/01/27 09:53:05;;;;;;;;;;;0.20;99.90;;;;;;4875456;29;19971;-74
2023/01/27 09:55:36;;;;;;;;;;;0.20;99.90;;;;;;4872747;29;21015;-75
2023/01/27 09:58:07;;;;;;;;;;;0.20;99.90;;;;;;4871862;29;19992;-74
2023/01/27 10:00:41;;;;;;;;;;;0.20;99.90;;;;;;4875767;29;19985;-74
2023/01/27 10:03:19;;;;;;;;;;;0.20;99.90;;;;;;4873496;29;19928;-74
2023/01/27 10:06:03;;;;;;;;;;;0.20;99.90;;;;;;4870371;29;20026;-75
2023/01/27 10:08:45;;;;;;;;;;;0.20;99.90;;;;;;4871750;29;20454;-75
2023/01/27 10:11:17;;;;;;;;;;;0.20;99.90;;;;;;4871950;29;19998;-75
2023/01/27 10:13:50;;;;;;;;;;;0.30;99.90;;;;;;4868958;29;19979;-75
2023/01/27 10:16:24;;;;;;;;;;;0.20;99.90;;;;;;4873882;29;20455;-75
2023/01/27 10:19:01;;;;;;;;;;;0.20;99.90;;;;;;4874448;29;19927;-75
2023/01/27 10:21:31;;;;;;;;;;;0.20;99.90;;;;;;4854651;29;19927;-75
2023/01/27 10:24:02;;;;;;;;;;;0.20;99.90;;;;;;4870236;29;19932;-74
2023/01/27 10:26:31;;;;;;;;;;;0.20;99.90;;;;;;4874629;29;20313;-74
2023/01/27 10:29:02;;;;;;;;;;;0.30;99.90;;;;;;4869363;29;19929;-75
2023/01/27 10:31:33;;;;;;;;;;;0.30;99.90;;;;;;4872346;29;19964;-75
2023/01/27 10:34:03;;;;;;;;;;;0.20;99.90;;;;;;4873743;29;19928;-74
2023/01/27 10:36:33;;;;;;;;;;;0.20;99.90;;;;;;4868545;29;19928;-75
2023/01/27 10:39:05;;;;;;;;;;;0.20;99.90;;;;;;4873144;29;20418;-75
2023/01/27 10:41:39;;;;;;;;;;;0.20;99.90;;;;;;4874849;29;19976;-74
2023/01/27 10:44:14;;;;;;;;;;;0.20;99.90;;;;;;4879662;29;20010;-75
2023/01/27 10:46:46;;;;;;;;;;;0.20;99.90;;;;;;4875281;29;19932;-75
2023/01/27 10:49:22;;;;;;;;;;;0.20;99.90;;;;;;4873927;29;20578;-74
2023/01/27 10:51:50;;;;;;;;;;;0.20;99.90;;;;;;4872615;29;19933;-74
2023/01/27 10:54:22;;;;;;;;;;;0.30;99.90;;;;;;4872063;29;19963;-75
2023/01/27 10:56:50;;;;;;;;;;;0.30;99.90;;;;;;4869366;29;20453;-74
2023/01/27 10:59:20;;;;;;;;;;;0.30;99.90;;;;;;4874440;29;20022;-75
2023/01/27 11:01:48;;;;;;;;;;;0.30;99.90;;;;;;4872881;29;19943;-74
2023/01/27 11:04:19;;;;;;;;;;;0.30;99.90;;;;;;4872223;29;19936;-75
2023/01/27 11:06:47;;;;;;;;;;;0.30;99.90;;;;;;4873879;29;19958;-74
2023/01/27 11:09:17;;;;;;;;;;;0.30;99.90;;;;;;4878234;29;20039;-75
2023/01/27 11:11:45;;;;;;;;;;;0.30;99.90;;;;;;4871841;29;19928;-75
2023/01/27 11:14:23;;;;;;;;;;;0.30;99.90;;;;;;4876187;29;20022;-74
2023/01/27 11:16:51;;;;;;;;;;;0.30;99.90;;;;;;4875131;29;19967;-75
2023/01/27 11:19:22;;;;;;;;;;;0.30;99.90;;;;;;4876837;29;19986;-75
2023/01/27 11:21:50;;;;;;;;;;;0.30;99.90;;;;;;4872837;29;19955;-75
2023/01/27 11:24:21;;;;;;;;;;;0.30;99.90;;;;;;4872795;29;20423;-72
2023/01/27 11:26:52;;;;;;;;;;;0.30;99.90;;;;;;4874567;29;19928;-75
2023/01/27 11:29:21;;;;;;;;;;;0.30;99.90;;;;;;4877189;29;19936;-74
2023/01/27 11:31:51;;;;;;;;;;;0.30;99.90;;;;;;4870367;29;19987;-75
2023/01/27 11:34:25;;;;;;;;;;;0.30;99.90;;;;;;4878607;29;20395;-75
2023/01/27 11:36:51;;;;;;;;;;;0.30;99.90;;;;;;4870044;29;19947;-74
2023/01/27 11:39:18;;;;;;;;;;;0.30;99.90;;;;;;4875085;29;19974;-74
2023/01/27 11:41:47;;;;;;;;;;;0.40;99.90;;;;;;4874360;29;19988;-74
2023/01/27 11:44:17;;;;;;;;;;;0.40;99.90;;;;;;4871791;29;19928;-74
2023/01/27 11:46:45;;;;;;;;;;;0.40;99.90;;;;;;4878555;29;19928;-75
2023/01/27 11:49:15;;;;;;;;;;;0.30;99.90;;;;;;4872858;29;20007;-75
2023/01/27 11:51:43;;;;;;;;;;;0.30;99.90;;;;;;4874660;29;19928;-74
2023/01/27 11:54:12;;;;;;;;;;;0.30;99.90;;;;;;4871637;29;19974;-75
2023/01/27 11:56:41;;;;;;;;;;;0.30;99.90;;;;;;4874560;29;19947;-75
2023/01/27 11:59:09;;;;;;;;;;;0.30;99.90;;;;;;4872361;29;19980;-74
2023/01/27 12:01:39;;;;;;;;;;;0.30;99.90;;;;;;4873559;29;19942;-75
2023/01/27 12:04:11;;;;;;;;;;;0.30;99.90;;;;;;4876311;29;19967;-75
2023/01/27 12:06:40;;;;;;;;;;;0.40;99.90;;;;;;4877114;29;19935;-74
2023/01/27 12:09:28;;;;;;;;;;;0.30;99.90;;;;;;4861154;29;20025;-75
2023/01/27 12:12:09;;;;;;;;;;;0.30;99.90;;;;;;4877402;29;19992;-74
2023/01/27 12:14:36;;;;;;;;;;;0.30;99.90;;;;;;4876147;29;19932;-75
2023/01/27 12:17:03;;;;;;;;;;;0.40;99.90;;;;;;4870131;29;19932;-75
2023/01/27 12:19:34;;;;;;;;;;;0.30;99.90;;;;;;4855743;29;19979;-74
2023/01/27 12:22:02;;;;;;;;;;;0.40;99.90;;;;;;4855633;29;20340;-75
2023/01/27 12:24:31;;;;;;;;;;;0.30;99.90;;;;;;4870808;29;19935;-75
2023/01/27 12:26:59;;;;;;;;;;;0.40;99.90;;;;;;4872172;29;19932;-75
2023/01/27 12:29:29;;;;;;;;;;;0.40;99.90;;;;;;4875011;29;19927;-74
2023/01/27 12:31:58;;;;;;;;;;;0.40;99.90;;;;;;4871372;29;19968;-72
2023/01/27 12:34:27;;;;;;;;;;;0.40;99.90;;;;;;4878660;29;19993;-74
2023/01/27 12:36:56;;;;;;;;;;;0.40;99.90;;;;;;4873553;29;19928;-74
2023/01/27 12:39:28;;;;;;;;;;;0.40;99.90;;;;;;4876530;29;19928;-74
2023/01/27 12:41:54;;;;;;;;;;;0.40;99.90;;;;;;4878176;29;20487;-74
2023/01/27 12:44:22;;;;;;;;;;;0.40;99.90;;;;;;4873250;29;20352;-75
2023/01/27 12:46:57;;;;;;;;;;;0.40;99.90;;;;;;4872571;29;19936;-75
2023/01/27 12:49:25;;;;;;;;;;;0.40;99.90;;;;;;4878881;29;20390;-75
2023/01/27 12:51:54;;;;;;;;;;;0.40;99.90;;;;;;4871262;29;19928;-75
2023/01/27 12:54:22;;;;;;;;;;;0.40;99.90;;;;;;4873557;29;20454;-75
2023/01/27 12:56:50;;;;;;;;;;;0.40;99.90;;;;;;4871182;29;19928;-75
2023/01/27 12:59:20;;;;;;;;;;;0.40;99.90;;;;;;4872352;29;19934;-74
2023/01/27 13:01:58;;;;;;;;;;;0.40;99.90;;;;;;4864537;29;19967;-74
2023/01/27 13:04:25;;;;;;;;;;;0.40;99.90;;;;;;4871402;29;19935;-74
2023/01/27 13:06:55;;;;;;;;;;;0.40;99.90;;;;;;4868612;29;19947;-75
2023/01/27 13:09:24;;;;;;;;;;;0.40;99.90;;;;;;4873899;29;20358;-74
2023/01/27 13:11:52;;;;;;;;;;;0.40;99.90;;;;;;4869106;29;19963;-75
2023/01/27 13:14:19;;;;;;;;;;;0.40;99.90;;;;;;4875255;29;19931;-75
2023/01/27 13:16:52;;;;;;;;;;;0.40;99.90;;;;;;4876358;29;20399;-74
2023/01/27 13:19:26;;;;;;;;;;;0.40;99.90;;;;;;4874260;29;19960;-75
2023/01/27 13:21:53;;;;;;;;;;;0.40;99.90;;;;;;4870807;29;19927;-74
2023/01/27 13:24:24;;;;;;;;;;;0.40;99.90;;;;;;4872645;29;19943;-74
2023/01/27 13:26:52;;;;;;;;;;;0.40;99.90;;;;;;4875308;29;20406;-75
2023/01/27 13:29:23;;;;;;;;;;;0.40;99.90;;;;;;4875971;29;20285;-75
2023/01/27 13:31:52;;;;;;;;;;;0.40;99.90;;;;;;4871790;29;19993;-74
2023/01/27 13:34:24;;;;;;;;;;;0.40;99.90;;;;;;4879515;29;20302;-74
2023/01/27 13:36:53;;;;;;;;;;;0.50;99.90;;;;;;4877181;29;19928;-75
2023/01/27 13:39:25;;;;;;;;;;;0.50;99.90;;;;;;4874216;29;19928;-75
2023/01/27 13:41:55;;;;;;;;;;;0.50;99.90;;;;;;4867722;29;19936;-75
2023/01/27 13:44:28;;;;;;;;;;;0.50;99.90;;;;;;4863363;29;19975;-75
2023/01/27 13:46:59;;;;;;;;;;;0.50;99.90;;;;;;4867628;29;19932;-76
2023/01/27 13:49:32;;;;;;;;;;;0.50;99.90;;;;;;4867671;29;20443;-75
2023/01/27 13:51:59;;;;;;;;;;;0.50;99.90;;;;;;4873235;29;20579;-74
2023/01/27 13:54:26;;;;;;;;;;;0.50;99.90;;;;;;4865885;29;19965;-76
2023/01/27 13:57:00;;;;;;;;;;;0.50;99.90;;;;;;4856144;29;19961;-75
2023/01/27 13:59:41;;;;;;;;;;;0.50;99.90;;;;;;4867036;29;20054;-75
2023/01/27 14:02:27;;;;;;;;;;;0.50;99.90;;;;;;4869269;29;19928;-75
2023/01/27 14:05:02;;;;;;;;;;;0.50;99.90;;;;;;4871234;29;19975;-74
2023/01/27 14:07:32;;;;;;;;;;;0.50;99.90;;;;;;4866784;29;19991;-74
2023/01/27 14:10:07;;;;;;;;;;;0.50;99.90;;;;;;4870170;29;19927;-75
2023/01/27 14:12:42;;;;;;;;;;;0.50;99.90;;;;;;4865401;29;21581;-75
2023/01/27 14:15:16;;;;;;;;;;;0.60;99.90;;;;;;4870430;29;19963;-74
2023/01/27 14:17:45;;;;;;;;;;;0.50;99.90;;;;;;4866752;29;19932;-74
2023/01/27 14:20:25;;;;;;;;;;;0.60;99.90;;;;;;4869088;29;19942;-75
2023/01/27 14:22:56;;;;;;;;;;;0.60;99.90;;;;;;4870217;29;19932;-75
2023/01/27 14:25:25;;;;;;;;;;;0.60;99.90;;;;;;4868714;29;19927;-75
2023/01/27 14:27:55;;;;;;;;;;;0.60;99.90;;;;;;4867418;29;19946;-74
2023/01/27 14:30:24;;;;;;;;;;;0.60;99.90;;;;;;4869465;29;20019;-75
2023/01/27 14:32:53;;;;;;;;;;;0.60;99.90;;;;;;4872155;29;19927;-74
2023/01/27 14:35:27;;;;;;;;;;;0.60;99.90;;;;;;4864110;29;20172;-75
2023/01/27 14:38:02;;;;;;;;;;;0.60;99.90;;;;;;4858592;29;20291;-76
2023/01/27 14:40:34;;;;;;;;;;;0.60;99.90;;;;;;4859862;29;19932;-78
2023/01/27 14:43:08;;;;;;;;;;;0.60;99.90;;;;;;4869301;29;19971;-77
2023/01/27 14:45:36;;;;;;;;;;;0.60;99.90;;;;;;4871370;29;19928;-77
2023/01/27 14:48:09;;;;;;;;;;;0.60;99.90;;;;;;4871479;29;19936;-77
2023/01/27 14:50:40;;;;;;;;;;;0.60;99.90;;;;;;4874323;29;20008;-77
2023/01/27 14:53:23;;;;;;;;;;;0.60;99.90;;;;;;4871233;29;19938;-77
2023/01/27 14:55:55;;;;;;;;;;;0.60;99.90;;;;;;4871510;29;20004;-76
2023/01/27 14:58:29;;;;;;;;;;;0.60;99.90;;;;;;4852524;29;19935;-77
2023/01/27 15:01:02;;;;;;;;;;;0.60;99.90;;;;;;4872534;29;19936;-76
2023/01/27 15:03:40;;;;;;;;;;;0.60;99.90;;;;;;4870191;29;20436;-77
2023/01/27 15:06:15;;;;;;;;;;;0.60;99.90;;;;;;4873769;29;19978;-77
2023/01/27 15:08:46;;;;;;;;;;;0.60;99.90;;;;;;4871628;29;19928;-77
2023/01/27 15:11:24;;;;;;;;;;;0.60;99.90;;;;;;4875649;29;19967;-77
2023/01/27 15:13:57;;;;;;;;;;;0.60;99.90;;;;;;4874593;29;19936;-77